Time;durP1;ratioP1;P1;durP2;ratioP2;P2;SDS_P1;SDS_P2;PMS_P1;PMS_P2;Temp;Humidity;BMP_temperature;BMP_pressure;BME280_temperature;BME280_humidity;BME280_pressure;Samples;Min_cycle;Max_cycle;Signal;HPM_P1;HPM_P2
2021/04/22 00:00:59;;;;;;;5.93;1.60;;;;;;;7.09;100.00;102526.47;1912033;75;26669;-83
2021/04/22 00:03:29;;;;;;;5.73;2.00;;;;;;;6.99;100.00;102532.99;1911784;75;26727;-83
2021/04/22 00:05:59;;;;;;;6.77;1.60;;;;;;;6.83;100.00;102535.73;1911732;75;26224;-82
2021/04/22 00:08:29;;;;;;;7.10;2.07;;;;;;;6.84;100.00;102536.59;1911670;75;26170;-82
2021/04/22 00:10:59;;;;;;;7.80;2.00;;;;;;;6.76;100.00;102530.75;1911872;75;26263;-82
2021/04/22 00:13:31;;;;;;;12.97;2.13;;;;;;;6.94;100.00;102536.95;1911790;75;26672;-83
2021/04/22 00:16:01;;;;;;;9.97;2.27;;;;;;;6.89;100.00;102535.37;1911679;75;26617;-83
2021/04/22 00:18:32;;;;;;;8.10;1.73;;;;;;;6.80;100.00;102542.23;1911751;75;26624;-82
2021/04/22 00:21:01;;;;;;;9.47;2.17;;;;;;;6.78;100.00;102538.30;1911820;75;26657;-82
2021/04/22 00:23:31;;;;;;;8.30;2.10;;;;;;;6.71;100.00;102547.69;1911589;74;26718;-81
2021/04/22 00:26:01;;;;;;;8.67;2.23;;;;;;;6.40;100.00;102546.51;1911633;75;26266;-82
2021/04/22 00:28:31;;;;;;;7.63;2.03;;;;;;;6.21;100.00;102552.05;1911761;75;26174;-82
2021/04/22 00:31:01;;;;;;;7.30;2.37;;;;;;;6.18;100.00;102551.11;1911773;75;26617;-82
2021/04/22 00:33:31;;;;;;;6.83;1.83;;;;;;;6.14;100.00;102551.22;1911704;75;26170;-82
2021/04/22 00:36:01;;;;;;;11.63;2.00;;;;;;;6.51;100.00;102556.55;1911843;75;26686;-83
2021/04/22 00:38:30;;;;;;;8.33;2.00;;;;;;;6.46;100.00;102555.81;1911711;75;26177;-82
2021/04/22 00:41:00;;;;;;;10.80;2.13;;;;;;;6.25;100.00;102558.31;1911701;75;26235;-82
2021/04/22 00:43:30;;;;;;;8.07;2.33;;;;;;;5.94;100.00;102560.91;1911822;75;26177;-82
2021/04/22 00:46:00;;;;;;;9.90;2.23;;;;;;;5.95;100.00;102559.30;1911777;75;26165;-83
2021/04/22 00:48:31;;;;;;;7.93;2.30;;;;;;;5.96;100.00;102560.15;1911730;75;26687;-82
2021/04/22 00:51:00;;;;;;;5.10;2.00;;;;;;;5.97;100.00;102562.38;1911851;75;26295;-82
2021/04/22 00:53:31;;;;;;;15.27;3.13;;;;;;;5.89;100.00;102557.41;1911938;75;26214;-82
2021/04/22 00:56:01;;;;;;;7.00;2.20;;;;;;;5.94;100.00;102554.87;1911778;75;26277;-83
2021/04/22 00:58:31;;;;;;;9.00;2.27;;;;;;;5.84;100.00;102557.16;1911768;75;26620;-82
2021/04/22 01:01:02;;;;;;;6.43;2.20;;;;;;;5.97;100.00;102549.97;1911867;75;26183;-82
2021/04/22 01:03:32;;;;;;;9.33;2.60;;;;;;;5.86;100.00;102552.82;1911708;75;26213;-82
2021/04/22 01:06:07;;;;;;;9.00;2.87;;;;;;;5.75;100.00;102557.05;1911776;75;26271;-82
2021/04/22 01:08:36;;;;;;;8.73;2.20;;;;;;;5.80;100.00;102551.75;1912218;75;26174;-82
2021/04/22 01:11:07;;;;;;;8.13;2.70;;;;;;;5.79;100.00;102558.84;1911868;75;26273;-83
2021/04/22 01:13:37;;;;;;;9.20;2.50;;;;;;;5.79;100.00;102550.05;1911879;75;26446;-82
2021/04/22 01:16:07;;;;;;;6.20;2.00;;;;;;;5.72;100.00;102556.10;1911746;75;26200;-82
2021/04/22 01:18:37;;;;;;;6.87;2.13;;;;;;;5.31;100.00;102558.15;1911826;75;26576;-82
2021/04/22 01:21:09;;;;;;;7.43;2.60;;;;;;;5.49;100.00;102559.25;1911765;75;26286;-80
2021/04/22 01:23:39;;;;;;;14.50;3.00;;;;;;;5.41;100.00;102556.70;1911711;75;26294;-80
2021/04/22 01:26:09;;;;;;;9.17;2.77;;;;;;;5.26;100.00;102560.71;1911745;74;26680;-80
2021/04/22 01:28:39;;;;;;;6.27;2.20;;;;;;;5.38;100.00;102564.02;1911946;75;26177;-80
2021/04/22 01:31:09;;;;;;;9.17;2.70;;;;;;;5.47;100.00;102567.42;1912221;75;26719;-80
2021/04/22 01:33:39;;;;;;;8.07;2.53;;;;;;;5.53;100.00;102569.33;1911878;75;26161;-80
2021/04/22 01:36:10;;;;;;;9.03;2.40;;;;;;;5.64;100.00;102571.48;1911607;75;26170;-82
2021/04/22 01:38:40;;;;;;;8.80;2.60;;;;;;;5.48;100.00;102578.22;1911776;75;26225;-82
2021/04/22 01:41:10;;;;;;;10.03;2.70;;;;;;;5.42;100.00;102568.05;1911754;75;26703;-81
2021/04/22 01:43:40;;;;;;;8.57;2.43;;;;;;;5.47;100.00;102575.17;1911734;75;26185;-81
2021/04/22 01:46:10;;;;;;;12.83;2.83;;;;;;;5.52;100.00;102567.62;1911570;75;26583;-82
2021/04/22 01:48:40;;;;;;;6.90;2.13;;;;;;;5.17;100.00;102574.34;1911630;75;26613;-81
2021/04/22 01:51:09;;;;;;;7.67;2.87;;;;;;;4.83;100.00;102576.66;1911599;75;26162;-82
2021/04/22 01:53:39;;;;;;;7.93;2.40;;;;;;;5.03;100.00;102582.56;1911638;75;26248;-82
2021/04/22 01:56:11;;;;;;;10.13;2.90;;;;;;;4.95;100.00;102580.00;1911720;75;26601;-82
2021/04/22 01:58:42;;;;;;;9.67;2.33;;;;;;;4.88;100.00;102578.25;1911704;75;26239;-82
2021/04/22 02:01:12;;;;;;;9.20;2.80;;;;;;;5.04;100.00;102582.05;1911758;75;26271;-82
2021/04/22 02:03:42;;;;;;;9.83;2.50;;;;;;;4.73;100.00;102578.94;1911724;75;26665;-82
2021/04/22 02:06:12;;;;;;;10.20;2.70;;;;;;;4.66;100.00;102582.19;1911726;75;26263;-80
2021/04/22 02:08:42;;;;;;;12.57;2.80;;;;;;;4.83;100.00;102578.04;1911772;75;26280;-81
2021/04/22 02:11:13;;;;;;;6.37;2.27;;;;;;;4.65;100.00;102579.97;1911637;75;26234;-81
2021/04/22 02:13:42;;;;;;;10.93;2.23;;;;;;;4.49;100.00;102582.50;1911763;75;26604;-81
2021/04/22 02:16:12;;;;;;;7.60;2.50;;;;;;;4.45;100.00;102584.52;1911746;75;26369;-81
2021/04/22 02:18:42;;;;;;;6.00;2.37;;;;;;;4.39;100.00;102582.56;1911740;75;26298;-81
2021/04/22 02:21:12;;;;;;;6.70;2.73;;;;;;;4.30;100.00;102581.02;1911771;75;26232;-81
2021/04/22 02:23:42;;;;;;;10.03;2.63;;;;;;;4.31;100.00;102578.59;1911963;75;26199;-81
2021/04/22 02:26:12;;;;;;;6.17;2.20;;;;;;;4.20;100.00;102584.64;1911973;74;26251;-81
2021/04/22 02:28:42;;;;;;;9.83;2.30;;;;;;;4.35;100.00;102585.39;1911946;75;26194;-81
2021/04/22 02:31:11;;;;;;;5.10;2.37;;;;;;;4.47;100.00;102587.38;1911937;75;26195;-82
2021/04/22 02:33:41;;;;;;;9.10;2.73;;;;;;;4.50;100.00;102589.71;1911677;75;26247;-81
2021/04/22 02:36:11;;;;;;;8.60;2.70;;;;;;;4.15;100.00;102597.61;1911817;75;26243;-82
2021/04/22 02:38:41;;;;;;;6.73;2.27;;;;;;;4.31;100.00;102596.48;1911950;75;26210;-82
2021/04/22 02:41:11;;;;;;;8.10;2.40;;;;;;;4.23;100.00;102596.11;1911777;75;26177;-82
2021/04/22 02:43:41;;;;;;;8.90;2.93;;;;;;;4.02;100.00;102599.73;1911681;75;26182;-82
2021/04/22 02:46:11;;;;;;;7.07;2.30;;;;;;;4.08;100.00;102598.09;1911663;75;26183;-82
2021/04/22 02:48:41;;;;;;;7.07;2.23;;;;;;;4.06;100.00;102599.66;1911708;75;26248;-81
2021/04/22 02:51:11;;;;;;;8.87;2.70;;;;;;;4.33;100.00;102600.71;1911714;75;26608;-81
2021/04/22 02:53:41;;;;;;;8.53;2.70;;;;;;;4.13;100.00;102603.85;1911810;75;26203;-81
2021/04/22 02:56:11;;;;;;;8.33;2.37;;;;;;;4.18;100.00;102606.00;1911919;75;26167;-81
2021/04/22 02:58:41;;;;;;;9.30;2.30;;;;;;;4.16;100.00;102609.47;1911784;75;26203;-82
2021/04/22 03:01:10;;;;;;;9.80;2.37;;;;;;;4.01;100.00;102602.70;1911678;75;26177;-83
2021/04/22 03:03:40;;;;;;;10.87;2.50;;;;;;;4.04;100.00;102607.80;1911753;75;26201;-82
2021/04/22 03:06:10;;;;;;;13.93;3.00;;;;;;;4.10;100.00;102607.87;1911696;75;26175;-83
2021/04/22 03:08:40;;;;;;;10.00;2.90;;;;;;;4.03;100.00;102611.07;1911718;75;26161;-82
2021/04/22 03:11:12;;;;;;;8.27;2.47;;;;;;;3.97;100.00;102611.03;1911949;75;26210;-82
2021/04/22 03:13:42;;;;;;;9.97;3.23;;;;;;;3.80;100.00;102614.59;1911782;75;26182;-82
2021/04/22 03:16:12;;;;;;;7.07;2.87;;;;;;;3.68;100.00;102616.98;1911812;75;26170;-82
2021/04/22 03:18:42;;;;;;;10.73;2.93;;;;;;;3.59;100.00;102615.97;1911748;75;26174;-83
2021/04/22 03:21:12;;;;;;;13.13;2.67;;;;;;;3.68;100.00;102618.06;1911730;75;26166;-82
2021/04/22 03:23:42;;;;;;;12.57;2.23;;;;;;;3.94;100.00;102611.41;1911815;75;26266;-83
2021/04/22 03:26:11;;;;;;;8.73;2.90;;;;;;;4.08;100.00;102609.95;1911766;75;26331;-82
2021/04/22 03:28:41;;;;;;;10.97;2.60;;;;;;;4.02;100.00;102620.91;1911743;75;26256;-83
2021/04/22 03:31:11;;;;;;;6.17;2.20;;;;;;;3.96;100.00;102618.42;1911841;75;26236;-84
2021/04/22 03:33:41;;;;;;;8.97;3.27;;;;;;;3.74;100.00;102617.25;1911802;75;26165;-84
2021/04/22 03:36:11;;;;;;;9.77;2.70;;;;;;;4.08;100.00;102611.84;1911718;75;26170;-83
2021/04/22 03:38:58;;;;;;;9.57;2.87;;;;;;;4.06;100.00;102612.59;1842131;77;33160;-84
2021/04/22 03:41:28;;;;;;;8.97;3.03;;;;;;;4.07;100.00;102610.99;1850978;77;26365;-83
2021/04/22 03:43:58;;;;;;;9.40;2.50;;;;;;;4.04;100.00;102617.42;1818724;79;26245;-83
2021/04/22 03:46:28;;;;;;;6.60;2.33;;;;;;;3.99;100.00;102615.78;1818727;79;26813;-83
2021/04/22 03:48:58;;;;;;;9.20;2.67;;;;;;;4.06;100.00;102616.16;1818734;79;26747;-83
2021/04/22 03:51:29;;;;;;;7.07;2.53;;;;;;;4.04;100.00;102612.77;1818676;79;26325;-82
2021/04/22 03:54:00;;;;;;;13.83;3.20;;;;;;;3.78;100.00;102613.06;1818431;79;26747;-82
2021/04/22 03:56:29;;;;;;;8.77;2.33;;;;;;;3.78;100.00;102609.80;1818690;79;26351;-83
2021/04/22 03:58:59;;;;;;;8.47;2.60;;;;;;;3.73;100.00;102609.53;1818713;79;26283;-83
2021/04/22 04:01:29;;;;;;;10.13;2.47;;;;;;;3.70;100.00;102615.95;1800379;78;929606;-83
2021/04/22 04:03:59;;;;;;;12.83;3.03;;;;;;;3.74;100.00;102607.63;1806789;79;26345;-83
2021/04/22 04:06:29;;;;;;;11.73;2.73;;;;;;;3.77;100.00;102610.84;1870898;77;26324;-83
2021/04/22 04:08:59;;;;;;;15.43;3.20;;;;;;;3.52;100.00;102609.02;1871040;76;26295;-82
2021/04/22 04:11:29;;;;;;;9.97;2.47;;;;;;;3.73;100.00;102600.43;1913761;75;26607;-81
2021/04/22 04:13:59;;;;;;;7.50;2.50;;;;;;;3.59;100.00;102606.34;1914251;74;26628;-81
2021/04/22 04:16:28;;;;;;;7.27;2.63;;;;;;;3.49;100.00;102607.19;1914356;74;26325;-81
2021/04/22 04:18:58;;;;;;;14.77;2.67;;;;;;;3.39;100.00;102607.50;1914357;74;26272;-81
2021/04/22 04:21:28;;;;;;;13.27;2.67;;;;;;;3.38;100.00;102608.54;1914332;74;26286;-81
2021/04/22 04:23:58;;;;;;;10.13;3.47;;;;;;;3.49;100.00;102618.17;1914357;75;26224;-81
2021/04/22 04:26:28;;;;;;;9.30;2.30;;;;;;;3.50;100.00;102617.99;1914302;74;26224;-83
2021/04/22 04:28:58;;;;;;;8.30;2.60;;;;;;;3.27;100.00;102625.54;1914269;74;26686;-83
2021/04/22 04:31:27;;;;;;;9.70;2.60;;;;;;;3.44;100.00;102633.02;1914302;75;26332;-83
2021/04/22 04:33:57;;;;;;;12.07;2.97;;;;;;;3.43;100.00;102629.94;1914334;74;26175;-83
2021/04/22 04:36:27;;;;;;;7.63;2.27;;;;;;;3.15;100.00;102631.21;1914383;74;26352;-83
2021/04/22 04:38:57;;;;;;;13.77;2.60;;;;;;;2.94;100.00;102636.13;1914458;74;26285;-83
2021/04/22 04:41:27;;;;;;;9.93;2.60;;;;;;;3.09;100.00;102632.82;1914297;74;26213;-83
2021/04/22 04:43:56;;;;;;;10.70;2.87;;;;;;;3.13;100.00;102636.03;1914666;74;26229;-83
2021/04/22 04:46:26;;;;;;;11.00;2.67;;;;;;;3.25;100.00;102640.52;1914354;74;26188;-83
2021/04/22 04:48:56;;;;;;;9.17;2.50;;;;;;;3.21;100.00;102637.28;1914445;74;26172;-83
2021/04/22 04:51:26;;;;;;;11.13;2.57;;;;;;;3.28;100.00;102637.38;1914364;75;26277;-83
2021/04/22 04:53:56;;;;;;;10.97;2.70;;;;;;;3.10;100.00;102638.66;1914405;74;26168;-82
2021/04/22 04:56:26;;;;;;;9.97;3.20;;;;;;;2.94;100.00;102627.04;1914425;74;26352;-83
2021/04/22 04:58:56;;;;;;;9.03;2.60;;;;;;;2.86;100.00;102634.01;1914332;75;26168;-83
2021/04/22 05:01:26;;;;;;;9.97;2.67;;;;;;;3.02;100.00;102640.14;1914274;75;26201;-83
2021/04/22 05:03:56;;;;;;;8.97;2.60;;;;;;;3.09;100.00;102640.20;1914308;74;26663;-83
2021/04/22 05:06:26;;;;;;;6.43;2.60;;;;;;;3.06;100.00;102642.83;1914290;74;26243;-82
2021/04/22 05:08:56;;;;;;;9.87;3.13;;;;;;;3.29;100.00;102648.19;1914300;75;26342;-82
2021/04/22 05:11:25;;;;;;;10.57;2.57;;;;;;;3.13;100.00;102648.38;1914483;74;26165;-82
2021/04/22 05:13:55;;;;;;;10.37;2.90;;;;;;;3.21;100.00;102652.39;1914306;74;26172;-82
2021/04/22 05:16:25;;;;;;;8.50;2.70;;;;;;;3.30;100.00;102652.61;1914464;74;26627;-82
2021/04/22 05:18:55;;;;;;;16.97;3.80;;;;;;;3.45;100.00;102652.06;1914452;74;26282;-83
2021/04/22 05:21:37;;;;;;;11.63;2.83;;;;;;;3.37;100.00;102655.45;1914519;74;26604;-82
2021/04/22 05:24:08;;;;;;;13.20;2.70;;;;;;;3.24;100.00;102656.14;1914480;75;26157;-82
2021/04/22 05:26:38;;;;;;;11.73;3.43;;;;;;;3.39;100.00;102663.81;1914335;74;26223;-82
2021/04/22 05:29:08;;;;;;;19.23;3.80;;;;;;;3.56;100.00;102660.30;1914360;74;26419;-82
2021/04/22 05:31:38;;;;;;;7.50;2.80;;;;;;;3.84;100.00;102658.50;1914289;75;26231;-83
2021/04/22 05:34:08;;;;;;;10.70;3.13;;;;;;;3.70;100.00;102655.28;1914457;74;26309;-82
2021/04/22 05:36:38;;;;;;;15.00;3.07;;;;;;;3.76;100.00;102666.87;1914258;74;26220;-82
2021/04/22 05:39:09;;;;;;;9.47;2.80;;;;;;;3.79;100.00;102665.10;1914383;75;26226;-82
2021/04/22 05:41:39;;;;;;;11.40;2.87;;;;;;;3.79;100.00;102662.88;1914312;74;26208;-82
2021/04/22 05:44:09;;;;;;;11.73;3.27;;;;;;;3.71;100.00;102670.73;1914315;74;26313;-81
2021/04/22 05:46:41;;;;;;;11.23;3.33;;;;;;;3.55;100.00;102670.98;1914397;74;26616;-81
2021/04/22 05:49:11;;;;;;;13.00;3.37;;;;;;;3.67;100.00;102670.80;1914440;75;26242;-81
2021/04/22 05:51:42;;;;;;;14.87;4.13;;;;;;;3.64;100.00;102679.41;1914384;74;26173;-81
2021/04/22 05:54:13;;;;;;;12.07;2.67;;;;;;;3.55;100.00;102678.67;1914363;74;26241;-81
2021/04/22 05:56:43;;;;;;;13.57;3.30;;;;;;;3.68;100.00;102680.72;1914381;74;26162;-81
2021/04/22 05:59:13;;;;;;;12.50;3.30;;;;;;;3.96;100.00;102679.43;1914427;74;26169;-81
2021/04/22 06:01:42;;;;;;;12.60;3.50;;;;;;;4.01;100.00;102679.17;1914304;74;26246;-82
2021/04/22 06:04:16;;;;;;;15.80;3.80;;;;;;;3.90;100.00;102678.83;1914352;75;26229;-82
2021/04/22 06:06:46;;;;;;;11.97;3.20;;;;;;;3.89;100.00;102680.75;1914276;74;26393;-82
2021/04/22 06:09:15;;;;;;;10.17;3.43;;;;;;;4.01;100.00;102681.07;1914341;74;26262;-83
2021/04/22 06:11:45;;;;;;;12.30;3.63;;;;;;;4.22;100.00;102687.92;1914476;74;26181;-83
2021/04/22 06:14:15;;;;;;;10.70;3.00;;;;;;;4.15;100.00;102685.62;1914479;74;26608;-82
2021/04/22 06:16:45;;;;;;;8.80;3.60;;;;;;;4.43;100.00;102693.91;1914266;75;26180;-82
2021/04/22 06:19:15;;;;;;;15.13;3.97;;;;;;;4.35;100.00;102694.06;1914275;74;26671;-81
2021/04/22 06:21:45;;;;;;;18.70;4.13;;;;;;;4.29;100.00;102695.70;1914373;74;26586;-82
2021/04/22 06:24:15;;;;;;;15.60;4.30;;;;;;;4.65;100.00;102698.84;1914273;74;26668;-82
2021/04/22 06:26:44;;;;;;;15.67;3.70;;;;;;;4.85;100.00;102690.17;1914373;74;26642;-81
2021/04/22 06:29:15;;;;;;;14.03;3.97;;;;;;;4.78;100.00;102697.55;1914183;74;26215;-83
2021/04/22 06:31:47;;;;;;;12.90;3.53;;;;;;;5.03;100.00;102700.14;1914299;74;26641;-82
2021/04/22 06:34:17;;;;;;;14.60;4.07;;;;;;;5.24;100.00;102693.67;1914375;74;26311;-83
2021/04/22 06:36:47;;;;;;;14.00;4.70;;;;;;;5.52;100.00;102699.92;1914416;74;26172;-83
2021/04/22 06:39:18;;;;;;;9.90;3.47;;;;;;;5.81;100.00;102697.37;1914444;75;26260;-81
2021/04/22 06:41:48;;;;;;;9.73;4.10;;;;;;;6.00;100.00;102689.69;1914283;75;26671;-83
2021/04/22 06:44:18;;;;;;;21.73;5.17;;;;;;;5.85;100.00;102691.77;1914354;74;26191;-83
2021/04/22 06:46:48;;;;;;;16.37;4.17;;;;;;;6.19;100.00;102694.92;1914389;74;26649;-83
2021/04/22 06:49:18;;;;;;;16.87;4.03;;;;;;;6.20;100.00;102703.52;1914462;75;26591;-83
2021/04/22 06:51:47;;;;;;;15.30;4.43;;;;;;;6.22;100.00;102702.23;1914646;74;26184;-82
2021/04/22 06:54:17;;;;;;;15.10;4.10;;;;;;;6.33;100.00;102701.59;1914664;74;26308;-81
2021/04/22 06:56:48;;;;;;;13.73;4.50;;;;;;;6.28;100.00;102708.30;1914449;74;26183;-82
2021/04/22 06:59:18;;;;;;;13.03;4.40;;;;;;;6.37;100.00;102701.48;1914475;74;26576;-82
2021/04/22 07:01:48;;;;;;;11.63;4.00;;;;;;;6.39;100.00;102705.42;1914320;74;26261;-82
2021/04/22 07:04:18;;;;;;;11.63;3.73;;;;;;;6.62;100.00;102710.00;1914346;74;26183;-82
2021/04/22 07:06:48;;;;;;;15.77;4.30;;;;;;;6.67;100.00;102706.06;1914409;74;26276;-81
2021/04/22 07:09:19;;;;;;;13.57;4.03;;;;;;;6.89;100.00;102699.73;1914730;75;26228;-84
2021/04/22 07:11:50;;;;;;;11.80;4.10;;;;;;;6.90;100.00;102704.73;1914664;74;26666;-84
2021/04/22 07:14:20;;;;;;;8.50;3.50;;;;;;;6.91;100.00;102683.81;1914725;75;26199;-83
2021/04/22 07:16:50;;;;;;;15.93;5.07;;;;;;;7.05;100.00;102707.58;1914873;74;26717;-80
2021/04/22 07:19:20;;;;;;;12.17;4.93;;;;;;;7.17;100.00;102697.55;1914754;74;26214;-82
2021/04/22 07:21:50;;;;;;;13.97;4.47;;;;;;;7.10;100.00;102705.55;1914554;74;26214;-82
2021/04/22 07:24:20;;;;;;;15.93;4.20;;;;;;;7.19;100.00;102707.84;1914661;75;26199;-80
2021/04/22 07:26:49;;;;;;;14.60;4.20;;;;;;;7.54;100.00;102710.26;1914663;74;26772;-78
2021/04/22 07:29:19;;;;;;;16.20;4.40;;;;;;;7.58;100.00;102710.12;1914680;74;26312;-81
2021/04/22 07:31:49;;;;;;;12.10;3.80;;;;;;;7.72;100.00;102703.47;1914723;74;26242;-80
2021/04/22 07:34:19;;;;;;;13.43;4.17;;;;;;;7.94;100.00;102705.37;1914774;74;26659;-81
2021/04/22 07:36:49;;;;;;;17.57;4.97;;;;;;;8.22;100.00;102700.26;1914716;74;26171;-80
2021/04/22 07:39:19;;;;;;;12.60;4.33;;;;;;;8.18;100.00;102701.25;1914536;75;26179;-81
2021/04/22 07:41:49;;;;;;;15.27;4.10;;;;;;;8.17;100.00;102709.23;1914661;74;26210;-80
2021/04/22 07:44:19;;;;;;;14.63;4.30;;;;;;;8.49;100.00;102707.86;1914671;74;26249;-80
2021/04/22 07:46:49;;;;;;;13.00;4.47;;;;;;;8.55;100.00;102711.13;1914685;75;26677;-80
2021/04/22 07:49:18;;;;;;;9.23;3.60;;;;;;;8.80;100.00;102713.87;1914753;74;26253;-82
2021/04/22 07:51:48;;;;;;;18.63;4.13;;;;;;;8.72;100.00;102705.85;1914744;74;26238;-81
2021/04/22 07:54:18;;;;;;;12.43;3.00;;;;;;;8.90;100.00;102705.32;1914621;74;26374;-81
2021/04/22 07:56:48;;;;;;;10.53;3.20;;;;;;;9.28;100.00;102700.98;1914695;74;26172;-81
2021/04/22 07:59:18;;;;;;;11.03;3.13;;;;;;;9.67;100.00;102701.56;1914684;74;26257;-81
2021/04/22 08:01:48;;;;;;;12.57;3.53;;;;;;;9.64;100.00;102707.02;1914706;74;26237;-81
2021/04/22 08:04:18;;;;;;;16.60;3.60;;;;;;;9.69;100.00;102703.54;1914606;74;26177;-81
2021/04/22 08:06:48;;;;;;;13.90;3.33;;;;;;;9.76;100.00;102698.20;1914691;74;26179;-81
2021/04/22 08:09:18;;;;;;;12.77;3.27;;;;;;;10.11;100.00;102706.66;1914542;74;26187;-81
2021/04/22 08:11:48;;;;;;;9.93;2.93;;;;;;;10.21;100.00;102704.19;1914470;75;26330;-81
2021/04/22 08:14:18;;;;;;;10.13;2.80;;;;;;;10.25;100.00;102694.84;1914572;75;26653;-81
2021/04/22 08:16:48;;;;;;;13.53;3.13;;;;;;;10.47;100.00;102702.38;1914565;74;26165;-81
2021/04/22 08:19:18;;;;;;;9.93;2.90;;;;;;;10.28;100.00;102696.59;1914548;74;26636;-80
2021/04/22 08:21:48;;;;;;;13.60;3.50;;;;;;;10.32;100.00;102701.97;1914649;74;26266;-82
2021/04/22 08:24:18;;;;;;;15.40;3.33;;;;;;;10.47;100.00;102704.30;1914592;74;26257;-81
2021/04/22 08:26:48;;;;;;;12.50;3.30;;;;;;;10.57;100.00;102702.33;1914639;74;26250;-82
2021/04/22 08:29:19;;;;;;;12.23;3.10;;;;;;;10.45;100.00;102712.87;1914578;74;26635;-81
2021/04/22 08:31:49;;;;;;;13.67;3.40;;;;;;;10.60;100.00;102706.02;1914531;74;26648;-81
2021/04/22 08:34:19;;;;;;;11.17;3.20;;;;;;;10.65;100.00;102706.99;1914614;74;26591;-81
2021/04/22 08:36:49;;;;;;;13.90;3.33;;;;;;;11.05;100.00;102705.70;1914546;75;26258;-81
2021/04/22 08:39:19;;;;;;;10.13;3.33;;;;;;;11.14;100.00;102708.95;1914716;74;26167;-82
2021/04/22 08:41:50;;;;;;;18.37;3.77;;;;;;;11.15;100.00;102703.16;1914713;75;26172;-83
2021/04/22 08:44:22;;;;;;;12.13;2.70;;;;;;;11.06;100.00;102709.33;1914826;74;26210;-81
2021/04/22 08:46:51;;;;;;;9.43;3.10;;;;;;;10.77;100.00;102705.60;1914688;74;26269;-81
2021/04/22 08:49:21;;;;;;;11.87;3.10;;;;;;;11.27;100.00;102705.91;1914396;75;26168;-81
2021/04/22 08:51:51;;;;;;;15.27;4.03;;;;;;;11.76;100.00;102707.27;1914712;74;26600;-81
2021/04/22 08:54:22;;;;;;;11.17;3.20;;;;;;;11.23;100.00;102708.89;1914598;75;26168;-81
2021/04/22 08:56:53;;;;;;;12.30;3.40;;;;;;;11.36;100.00;102699.73;1914678;74;26176;-80
2021/04/22 08:59:24;;;;;;;15.37;3.43;;;;;;;11.40;100.00;102696.75;1914612;74;26603;-81
2021/04/22 09:01:54;;;;;;;12.87;3.90;;;;;;;11.59;100.00;102691.88;1914643;74;26257;-81
2021/04/22 09:04:25;;;;;;;11.13;3.20;;;;;;;11.42;100.00;102699.30;1914664;74;26176;-81
2021/04/22 09:06:56;;;;;;;10.97;3.37;;;;;;;11.53;100.00;102695.63;1914712;74;26175;-81
2021/04/22 09:09:26;;;;;;;12.93;3.63;;;;;;;11.47;100.00;102698.57;1914507;75;26190;-80
2021/04/22 09:11:56;;;;;;;14.00;3.60;;;;;;;11.45;100.00;102699.34;1914645;74;26158;-81
2021/04/22 09:14:26;;;;;;;9.50;3.20;;;;;;;11.83;100.00;102690.70;1914697;74;26168;-81
2021/04/22 09:16:59;;;;;;;10.97;3.60;;;;;;;11.81;100.00;102694.27;1914760;74;26241;-81
2021/04/22 09:19:30;;;;;;;11.60;3.70;;;;;;;11.79;100.00;102682.56;1914748;74;26249;-81
2021/04/22 09:22:01;;;;;;;10.73;3.43;;;;;;;12.20;100.00;102691.66;1914600;74;26246;-81
2021/04/22 09:24:31;;;;;;;10.93;3.17;;;;;;;12.10;100.00;102691.49;1914582;75;26651;-81
2021/04/22 09:27:04;;;;;;;9.03;3.10;;;;;;;12.39;100.00;102688.09;1914670;75;26218;-81
2021/04/22 09:29:39;;;;;;;10.13;3.40;;;;;;;12.02;100.00;102694.69;1914625;74;26264;-80
2021/04/22 09:32:11;;;;;;;7.93;3.00;;;;;;;12.21;100.00;102694.20;1914410;74;26223;-82
2021/04/22 09:34:43;;;;;;;9.73;3.27;;;;;;;11.95;100.00;102700.94;1914882;74;26219;-82
2021/04/22 09:37:14;;;;;;;8.43;2.70;;;;;;;12.57;100.00;102694.28;1914696;74;26257;-82
2021/04/22 09:39:44;;;;;;;9.93;2.70;;;;;;;12.54;100.00;102701.73;1914572;75;26179;-80
2021/04/22 09:42:17;;;;;;;10.60;3.73;;;;;;;12.26;100.00;102704.05;1914762;74;26269;-80
2021/04/22 09:44:48;;;;;;;9.20;3.20;;;;;;;12.37;100.00;102702.27;1914845;74;26195;-80
2021/04/22 09:47:23;;;;;;;8.93;2.80;;;;;;;12.05;100.00;102698.36;1914568;74;26261;-80
2021/04/22 09:49:59;;;;;;;12.17;3.30;;;;;;;12.33;100.00;102684.37;1914670;74;26348;-80
2021/04/22 09:52:32;;;;;;;7.60;2.87;;;;;;;12.71;100.00;102689.17;1914686;74;26260;-80
2021/04/22 09:55:04;;;;;;;11.47;3.30;;;;;;;12.44;100.00;102690.43;1914551;74;26297;-80
2021/04/22 09:57:35;;;;;;;10.23;3.30;;;;;;;12.74;100.00;102686.75;1914724;74;26587;-80
2021/04/22 10:00:11;;;;;;;12.43;3.50;;;;;;;12.48;100.00;102681.86;1914660;74;26715;-81
2021/04/22 10:02:51;;;;;;;12.37;3.77;;;;;;;12.22;100.00;102688.94;1914950;74;26702;-82
2021/04/22 10:05:22;;;;;;;9.23;3.20;;;;;;;12.45;100.00;102687.09;1914466;74;26173;-80
2021/04/22 10:07:54;;;;;;;10.47;3.20;;;;;;;12.71;100.00;102681.66;1914652;74;26183;-80
2021/04/22 10:10:24;;;;;;;8.80;2.97;;;;;;;12.77;100.00;102686.77;1914050;74;26187;-80
2021/04/22 10:13:00;;;;;;;9.97;3.10;;;;;;;12.66;100.00;102689.94;1914528;74;26171;-82
2021/04/22 10:15:32;;;;;;;12.57;3.03;;;;;;;12.75;100.00;102693.98;1914590;74;26176;-82
2021/04/22 10:18:04;;;;;;;8.33;3.20;;;;;;;12.87;100.00;102695.85;1914775;74;26288;-81
2021/04/22 10:20:36;;;;;;;8.27;2.73;;;;;;;12.87;100.00;102693.91;1915032;74;26293;-82
2021/04/22 10:23:08;;;;;;;8.17;3.10;;;;;;;12.95;100.00;102692.08;1914620;75;26179;-82
2021/04/22 10:25:41;;;;;;;10.10;3.83;;;;;;;12.81;100.00;102692.68;1914631;74;26320;-80
2021/04/22 10:28:14;;;;;;;9.03;2.60;;;;;;;12.78;100.00;102688.47;1914503;74;26220;-81
2021/04/22 10:30:47;;;;;;;10.43;3.13;;;;;;;13.07;100.00;102681.65;1914438;73;26187;-81
2021/04/22 10:33:18;;;;;;;12.23;3.20;;;;;;;13.23;100.00;102679.39;1914664;74;26223;-80
2021/04/22 10:35:49;;;;;;;9.40;2.87;;;;;;;13.04;100.00;102679.93;1914549;75;26270;-80
2021/04/22 10:38:21;;;;;;;15.37;3.77;;;;;;;13.04;100.00;102682.72;1914535;74;26627;-81
2021/04/22 10:40:52;;;;;;;10.90;2.97;;;;;;;12.91;100.00;102688.12;1914519;74;26235;-80
2021/04/22 10:43:25;;;;;;;7.60;2.87;;;;;;;12.83;100.00;102684.91;1914622;74;26191;-82
2021/04/22 10:45:57;;;;;;;10.53;3.10;;;;;;;12.95;100.00;102684.26;1914832;75;26253;-81
2021/04/22 10:48:27;;;;;;;9.47;2.93;;;;;;;13.48;100.00;102678.02;1914628;74;26261;-81
2021/04/22 10:50:58;;;;;;;7.50;2.80;;;;;;;13.18;100.00;102675.67;1914758;74;26184;-80
2021/04/22 10:53:30;;;;;;;9.63;3.37;;;;;;;12.97;100.00;102677.85;1914651;74;26266;-81
2021/04/22 10:56:00;;;;;;;10.27;3.23;;;;;;;13.00;100.00;102668.99;1914743;74;26191;-80
2021/04/22 10:58:33;;;;;;;9.47;2.90;;;;;;;13.46;100.00;102667.13;1914896;75;26254;-80
2021/04/22 11:01:05;;;;;;;7.30;2.60;;;;;;;13.63;100.00;102667.05;1914544;74;26297;-81
2021/04/22 11:03:38;;;;;;;10.70;2.57;;;;;;;13.66;100.00;102667.91;1914661;74;26207;-81
2021/04/22 11:06:11;;;;;;;11.07;3.20;;;;;;;13.58;100.00;102665.59;1914593;75;26661;-81
2021/04/22 11:08:43;;;;;;;8.93;3.27;;;;;;;13.25;100.00;102665.73;1914901;75;26184;-81
2021/04/22 11:11:21;;;;;;;11.33;3.00;;;;;;;13.35;100.00;102668.09;1915007;75;26175;-82
2021/04/22 11:13:53;;;;;;;9.93;3.07;;;;;;;13.34;100.00;102664.19;1914838;75;26330;-82
2021/04/22 11:16:32;;;;;;;9.07;3.17;;;;;;;13.43;100.00;102659.84;1914093;74;26171;-80
2021/04/22 11:19:04;;;;;;;10.83;2.90;;;;;;;13.60;100.00;102659.20;1914701;74;26648;-83
2021/04/22 11:21:36;;;;;;;6.63;2.83;;;;;;;13.68;100.00;102655.94;1914130;74;26685;-82
2021/04/22 11:24:07;;;;;;;9.43;3.10;;;;;;;13.54;100.00;102656.90;1914692;74;26245;-82
2021/04/22 11:26:38;;;;;;;10.50;2.70;;;;;;;13.85;100.00;102660.87;1914754;75;26337;-85
2021/04/22 11:29:14;;;;;;;8.80;3.00;;;;;;;13.71;100.00;102661.55;1914556;75;26249;-81
2021/04/22 11:31:50;;;;;;;10.57;2.60;;;;;;;13.74;100.00;102656.27;1914656;74;26257;-80
2021/04/22 11:34:21;;;;;;;11.20;2.97;;;;;;;13.73;100.00;102655.16;1914690;74;26571;-81